createdAt,value
2022-11-02T04:01:24.229Z,4.40
2022-11-02T04:50:24.399Z,3.90
2022-11-02T05:24:27.739Z,3.90
2022-11-02T05:31:38.578Z,4.30
2022-11-02T05:46:46.277Z,4.20
2022-11-02T06:36:20.492Z,4.20
2022-11-02T07:15:11.415Z,6.40
2022-11-02T07:17:41.184Z,6.80
2022-11-02T07:20:10.719Z,7.10
2022-11-02T07:22:39.640Z,7.40
2022-11-02T07:25:08.421Z,7.80
2022-11-02T07:27:40.430Z,8.20
2022-11-02T07:30:11.345Z,8.50
2022-11-02T07:32:43.478Z,8.90
2022-11-02T07:35:12.864Z,9.10
2022-11-02T07:37:41.212Z,9.40
2022-11-02T07:40:11.319Z,9.90
2022-11-02T07:42:45.185Z,10.10
2022-11-02T07:45:15.723Z,10.10
2022-11-02T07:47:45.121Z,10.00
2022-11-02T07:50:13.680Z,9.90
2022-11-02T07:52:46.592Z,10.00
2022-11-02T07:55:15.762Z,10.10
2022-11-02T07:57:44.419Z,10.30
2022-11-02T08:00:15.562Z,10.20
2022-11-02T08:02:43.970Z,10.40
2022-11-02T08:05:12.160Z,10.50
2022-11-02T08:07:40.624Z,10.80
2022-11-02T08:10:09.557Z,10.80
2022-11-02T08:12:37.601Z,11.10
2022-11-02T08:15:07.839Z,11.30
2022-11-02T08:17:38.438Z,11.20
2022-11-02T08:20:09.271Z,11.50
2022-11-02T08:22:39.569Z,11.60
2022-11-02T08:25:09.493Z,11.60
2022-11-02T08:27:37.976Z,11.60
2022-11-02T08:30:08.052Z,11.60
2022-11-02T08:32:38.463Z,11.50
2022-11-02T08:35:08.245Z,11.40
2022-11-02T08:37:39.875Z,11.30
2022-11-02T08:40:10.192Z,11.20
2022-11-02T08:42:39.397Z,11.10
2022-11-02T08:45:09.207Z,11.10
2022-11-02T08:47:44.758Z,11.10
2022-11-02T08:50:13.404Z,11.10
2022-11-02T08:52:42.782Z,11.10
2022-11-02T08:55:11.533Z,11.10
2022-11-02T08:57:48.358Z,11.10
2022-11-02T09:00:17.403Z,11.20
2022-11-02T09:03:00.618Z,11.30
2022-11-02T09:05:29.455Z,11.40
2022-11-02T09:07:59.646Z,11.40
2022-11-02T09:10:28.091Z,11.60
2022-11-02T09:12:57.691Z,11.60
2022-11-02T09:15:25.793Z,11.70
2022-11-02T09:17:55.365Z,11.70
2022-11-02T09:20:24.519Z,11.80
2022-11-02T09:22:53.345Z,11.80
2022-11-02T09:25:22.822Z,11.90
2022-11-02T09:27:55.735Z,11.90
2022-11-02T09:30:25.281Z,12.00
2022-11-02T09:32:59.987Z,12.00
2022-11-02T09:35:30.572Z,12.10
2022-11-02T09:38:03.061Z,12.20
2022-11-02T09:40:38.021Z,12.30
2022-11-02T09:43:15.838Z,12.30
2022-11-02T09:45:58.858Z,12.40
2022-11-02T09:48:33.820Z,12.50
2022-11-02T09:51:10.763Z,12.60
2022-11-02T09:53:51.868Z,12.70
2022-11-02T09:56:24.266Z,12.80
2022-11-02T09:59:02.094Z,13.00
2022-11-02T10:01:45.903Z,13.30
2022-11-02T10:05:02.990Z,13.50
2022-11-02T10:08:08.039Z,13.80
2022-11-02T10:10:40.548Z,13.90
2022-11-02T10:13:24.306Z,13.80
2022-11-02T10:15:58.413Z,14.00
2022-11-02T10:21:40.390Z,14.40
2022-11-02T10:24:29.161Z,14.60
2022-11-02T10:27:13.864Z,14.60
2022-11-02T10:30:25.510Z,14.70
2022-11-02T10:33:00.311Z,14.40
2022-11-02T10:36:04.384Z,14.10
2022-11-02T10:38:43.469Z,13.80
2022-11-02T10:42:23.826Z,13.70
2022-11-02T10:49:27.350Z,13.40
2022-11-02T10:52:23.368Z,13.40
2022-11-02T10:55:04.490Z,13.40
2022-11-02T10:58:01.763Z,13.30
2022-11-02T11:04:15.616Z,13.20
2022-11-02T11:07:12.887Z,13.10
2022-11-02T11:22:43.474Z,13.60
2022-11-02T11:26:13.908Z,14.00
2022-11-02T12:00:40.265Z,14.30
2022-11-02T12:06:44.153Z,14.50
2022-11-02T12:09:25.760Z,14.40
2022-11-02T12:12:08.238Z,14.30
2022-11-02T12:18:23.441Z,14.50
2022-11-02T12:24:51.466Z,14.30
2022-11-02T12:30:52.317Z,14.10
2022-11-02T12:33:44.606Z,14.00
2022-11-02T12:37:10.313Z,13.90
2022-11-02T12:39:57.443Z,13.90
2022-11-02T12:42:40.652Z,13.90
2022-11-02T12:45:39.601Z,13.90
2022-11-02T13:06:03.891Z,14.10
2022-11-02T13:09:13.029Z,14.10
2022-11-02T13:12:10.959Z,14.20
2022-11-02T13:15:12.490Z,14.10
2022-11-02T13:17:52.234Z,14.10
2022-11-02T13:20:38.902Z,14.10
2022-11-02T13:31:19.546Z,14.20
2022-11-02T13:37:51.295Z,14.80
2022-11-02T13:40:37.082Z,15.00
2022-11-02T13:47:40.107Z,15.00
2022-11-02T13:50:34.783Z,14.50
2022-11-02T14:04:37.858Z,13.70
2022-11-02T14:11:50.545Z,14.50
2022-11-02T14:22:32.022Z,14.90
2022-11-02T14:25:31.496Z,14.80
2022-11-02T14:32:07.817Z,14.30
2022-11-02T14:36:17.239Z,14.20
2022-11-02T14:39:39.850Z,13.90
2022-11-02T14:43:15.406Z,14.10
2022-11-02T14:46:55.374Z,13.90
2022-11-02T14:53:56.431Z,13.60
2022-11-02T15:01:29.189Z,13.20
2022-11-02T15:07:52.526Z,13.00
2022-11-02T15:11:00.922Z,12.80
2022-11-02T15:25:01.072Z,12.30
2022-11-02T15:36:11.118Z,11.70
2022-11-02T15:58:40.104Z,9.80
2022-11-02T16:01:21.866Z,9.60
2022-11-02T16:07:38.301Z,9.20
2022-11-02T16:11:27.329Z,9.10
2022-11-02T16:14:59.478Z,8.90
2022-11-02T16:18:01.587Z,8.70
2022-11-02T16:24:47.881Z,8.40
2022-11-02T16:27:40.849Z,8.30
2022-11-02T16:30:30.976Z,8.20
2022-11-02T16:33:05.558Z,8.00
2022-11-02T16:35:34.938Z,7.90
2022-11-02T16:38:29.313Z,7.80
2022-11-02T16:48:02.386Z,7.50
2022-11-02T16:50:39.753Z,7.50
2022-11-02T16:53:35.577Z,7.30
2022-11-02T16:56:35.723Z,7.30
2022-11-02T16:59:23.274Z,7.20
2022-11-02T17:02:02.008Z,7.10
2022-11-02T17:04:47.242Z,7.00
2022-11-02T17:10:54.234Z,6.90
2022-11-02T17:13:35.242Z,6.80
2022-11-02T17:16:19.784Z,6.80
2022-11-02T17:19:05.586Z,6.80
2022-11-02T17:21:44.851Z,6.70
2022-11-02T17:24:39.259Z,6.70
2022-11-02T17:27:42.268Z,6.60
2022-11-02T17:31:15.160Z,6.50
2022-11-02T17:33:52.024Z,6.50
2022-11-02T17:36:27.846Z,6.50
2022-11-02T17:42:18.491Z,6.40
2022-11-02T17:44:56.402Z,6.30
2022-11-02T17:47:26.891Z,6.30
2022-11-02T17:50:15.582Z,6.20
2022-11-02T17:52:53.488Z,6.20
2022-11-02T17:55:28.671Z,6.10
2022-11-02T17:58:33.702Z,6.10
2022-11-02T18:01:05.635Z,6.00
2022-11-02T18:03:34.809Z,6.00
2022-11-02T18:06:13.992Z,5.90
2022-11-02T18:09:06.454Z,5.90
2022-11-02T18:11:36.119Z,5.80
2022-11-02T18:14:16.661Z,5.70
2022-11-02T18:16:50.172Z,5.70
2022-11-02T18:19:22.540Z,5.70
2022-11-02T18:21:53.725Z,5.60
2022-11-02T18:24:31.197Z,5.60
2022-11-02T18:27:18.140Z,5.60
2022-11-02T18:29:55.906Z,5.50
2022-11-02T18:32:27.840Z,5.40
2022-11-02T18:35:06.519Z,5.40
2022-11-02T18:37:47.120Z,5.40
2022-11-02T18:40:30.217Z,5.30
2022-11-02T18:43:06.135Z,5.30
2022-11-02T18:45:52.576Z,5.20
2022-11-02T18:48:21.372Z,5.20
2022-11-02T18:51:03.904Z,5.10
2022-11-02T18:53:36.125Z,5.10
2022-11-02T18:59:04.701Z,4.90
2022-11-02T19:01:55.682Z,4.90
2022-11-02T19:04:26.962Z,4.80
2022-11-02T19:07:28.158Z,4.70
2022-11-02T19:10:01.012Z,4.70
2022-11-02T19:12:35.971Z,4.70
2022-11-02T19:15:10.016Z,4.60
2022-11-02T19:18:38.677Z,4.60
2022-11-02T19:21:08.964Z,4.60
2022-11-02T19:24:40.855Z,4.50
2022-11-02T19:30:43.575Z,4.50
2022-11-02T19:33:31.510Z,4.40
2022-11-02T19:40:21.614Z,4.30
2022-11-02T19:44:14.304Z,4.30
